Time,TemperatureF,DewpointF,PressureIn,WindDirection,WindDirectionDegrees,WindSpeedMPH,WindSpeedGustMPH,Humidity,HourlyPrecipIn,Conditions,Clouds,dailyrainin,SoftwareType,DateUTC
2013-02-04 00:00:00,23.5,19.4,29.79,WNW,287,0.0,0.0,84,0.00,,,0.04,Wunderground v.1.15,2013-02-04 05:00:00,
2013-02-04 00:10:00,23.5,19.4,29.79,WNW,287,0.0,0.0,84,0.00,,,0.00,Wunderground v.1.15,2013-02-04 05:10:00,
2013-02-04 00:20:00,23.7,19.6,29.78,WNW,287,0.0,0.0,84,0.00,,,0.00,Wunderground v.1.15,2013-02-04 05:20:00,
2013-02-04 00:27:00,23.7,20.0,29.79,WNW,287,0.0,1.0,85,0.00,,,0.00,weatherlink.com 1.10,2013-02-04 05:27:00,
2013-02-04 00:30:00,23.8,19.9,29.79,WNW,287,0.0,0.0,85,0.00,,,0.00,Wunderground v.1.15,2013-02-04 05:30:00,
2013-02-04 00:40:00,23.8,19.9,29.79,WNW,287,0.0,0.0,85,0.00,,,0.00,Wunderground v.1.15,2013-02-04 05:40:00,
2013-02-04 00:50:00,23.8,20.2,29.79,WNW,287,0.0,0.0,86,0.00,,,0.00,Wunderground v.1.15,2013-02-04 05:50:00,
2013-02-04 00:57:00,23.8,20.0,29.79,WNW,287,0.0,2.0,86,0.00,,,0.00,weatherlink.com 1.10,2013-02-04 05:57:00,
2013-02-04 01:10:00,24.1,21.1,29.79,SW,233,1.0,1.0,88,0.00,,,0.00,Wunderground v.1.15,2013-02-04 06:10:00,
2013-02-04 01:20:00,24.6,20.2,29.79,WNW,296,2.0,2.0,83,0.00,,,0.00,Wunderground v.1.15,2013-02-04 06:20:00,
2013-02-04 01:27:00,25.0,20.0,29.79,NW,307,1.0,8.0,80,0.00,,,0.00,weatherlink.com 1.10,2013-02-04 06:27:00,
2013-02-04 01:40:00,25.4,18.6,29.79,West,279,2.0,6.0,75,0.00,,,0.00,Wunderground v.1.15,2013-02-04 06:40:00,
2013-02-04 01:50:00,25.3,17.9,29.80,WNW,286,2.0,2.0,73,0.00,,,0.00,Wunderground v.1.15,2013-02-04 06:50:00,
2013-02-04 01:57:00,25.2,18.0,29.80,NW,305,0.0,9.0,73,0.00,,,0.00,weatherlink.com 1.10,2013-02-04 06:57:00,
2013-02-04 02:10:00,24.9,17.5,29.80,WNW,302,3.0,3.0,73,0.00,,,0.00,Wunderground v.1.15,2013-02-04 07:10:00,
2013-02-04 02:20:00,24.8,17.4,29.80,West,275,3.0,3.0,73,0.00,,,0.00,Wunderground v.1.15,2013-02-04 07:20:00,
2013-02-04 02:27:00,24.6,17.0,29.80,WSW,253,1.0,8.0,74,0.00,,,0.00,weatherlink.com 1.10,2013-02-04 07:27:00,
2013-02-04 02:40:00,24.3,17.2,29.81,NW,309,3.0,3.0,74,0.00,,,0.00,Wunderground v.1.15,2013-02-04 07:40:00,
2013-02-04 02:50:00,24.2,16.5,29.81,West,265,3.0,3.0,72,0.00,,,0.00,Wunderground v.1.15,2013-02-04 07:50:00,
2013-02-04 02:58:00,24.1,16.0,29.81,WNW,286,3.0,10.0,72,0.00,,,0.00,weatherlink.com 1.10,2013-02-04 07:58:00,
2013-02-04 03:10:00,24.0,15.6,29.82,WNW,290,3.0,4.0,70,0.00,,,0.00,Wunderground v.1.15,2013-02-04 08:10:00,
2013-02-04 03:20:00,23.8,15.4,29.82,NNW,329,3.0,3.0,70,0.00,,,0.00,Wunderground v.1.15,2013-02-04 08:20:00,
2013-02-04 03:28:00,23.7,15.0,29.82,North,11,3.0,10.0,69,0.00,,,0.00,weatherlink.com 1.10,2013-02-04 08:28:00,
2013-02-04 03:40:00,23.5,14.8,29.83,WNW,282,2.0,7.0,69,0.00,,,0.00,Wunderground v.1.15,2013-02-04 08:40:00,
2013-02-04 03:50:00,23.4,14.7,29.83,North,355,3.0,5.0,69,0.00,,,0.00,Wunderground v.1.15,2013-02-04 08:50:00,
2013-02-04 03:58:00,23.3,15.0,29.84,NNW,327,5.0,9.0,69,0.00,,,0.00,weatherlink.com 1.10,2013-02-04 08:58:00,
2013-02-04 04:10:00,23.0,14.3,29.84,NNW,337,1.0,1.0,69,0.00,,,0.00,Wunderground v.1.15,2013-02-04 09:10:00,
2013-02-04 04:20:00,22.9,14.2,29.85,NNW,333,3.0,4.0,69,0.00,,,0.00,Wunderground v.1.15,2013-02-04 09:20:00,
2013-02-04 04:28:00,22.8,14.0,29.85,NW,325,0.0,11.0,69,0.00,,,0.00,weatherlink.com 1.10,2013-02-04 09:28:00,
2013-02-04 04:40:00,22.6,14.0,29.86,NNW,329,3.0,4.0,69,0.00,,,0.00,Wunderground v.1.15,2013-02-04 09:40:00,
2013-02-04 04:50:00,22.5,13.2,29.86,NNW,331,4.0,7.0,67,0.00,,,0.00,Wunderground v.1.15,2013-02-04 09:50:00,
2013-02-04 04:59:00,22.4,12.0,29.87,WNW,298,1.0,16.0,65,0.00,,,0.00,weatherlink.com 1.10,2013-02-04 09:59:00,
2013-02-04 05:10:00,22.2,12.2,29.87,NW,319,2.0,2.0,65,0.00,,,0.00,Wunderground v.1.15,2013-02-04 10:10:00,
2013-02-04 05:20:00,22.0,12.0,29.88,NNW,342,3.0,6.0,65,0.00,,,0.00,Wunderground v.1.15,2013-02-04 10:20:00,
2013-02-04 05:29:00,21.9,12.0,29.88,NNW,327,2.0,13.0,65,0.00,,,0.00,weatherlink.com 1.10,2013-02-04 10:29:00,
2013-02-04 05:40:00,21.8,11.8,29.88,NW,318,3.0,5.0,65,0.00,,,0.00,Wunderground v.1.15,2013-02-04 10:40:00,
2013-02-04 05:50:00,21.7,11.4,29.89,NW,323,3.0,6.0,64,0.00,,,0.00,Wunderground v.1.15,2013-02-04 10:50:00,
2013-02-04 05:59:00,21.7,11.0,29.89,WNW,290,4.0,13.0,63,0.00,,,0.00,weatherlink.com 1.10,2013-02-04 10:59:00,
2013-02-04 06:10:00,21.6,10.9,29.89,WNW,301,3.0,3.0,63,0.00,,,0.00,Wunderground v.1.15,2013-02-04 11:10:00,
2013-02-04 06:20:00,21.5,10.8,29.89,NW,309,2.0,2.0,63,0.00,,,0.00,Wunderground v.1.15,2013-02-04 11:20:00,
2013-02-04 06:30:00,21.3,11.0,29.90,NW,317,1.0,7.0,64,0.00,,,0.00,weatherlink.com 1.10,2013-02-04 11:30:00,
2013-02-04 06:40:00,21.2,10.9,29.90,NW,313,2.0,2.0,64,0.00,,,0.00,Wunderground v.1.15,2013-02-04 11:40:00,
2013-02-04 06:45:00,21.2,11.0,29.90,NW,323,0.0,7.0,64,0.00,,,0.00,weatherlink.com 1.10,2013-02-04 11:45:00,
2013-02-04 07:00:00,21.4,11.0,29.90,NW,304,2.0,9.0,63,0.00,,,0.00,weatherlink.com 1.10,2013-02-04 12:00:00,
2013-02-04 07:10:00,21.3,10.7,29.91,NW,304,2.0,2.0,63,0.00,,,0.00,Wunderground v.1.15,2013-02-04 12:10:00,
2013-02-04 07:20:00,21.3,11.0,29.91,West,265,2.0,2.0,64,0.00,,,0.00,Wunderground v.1.15,2013-02-04 12:20:00,
2013-02-04 07:29:00,21.2,11.0,29.91,WNW,286,2.0,3.0,65,0.00,,,0.00,weatherlink.com 1.10,2013-02-04 12:29:00,
2013-02-04 07:40:00,21.2,11.3,29.91,WNW,286,1.0,1.0,65,0.00,,,0.00,Wunderground v.1.15,2013-02-04 12:40:00,
2013-02-04 07:45:00,21.3,11.0,29.92,NW,309,0.0,5.0,65,0.00,,,0.00,weatherlink.com 1.10,2013-02-04 12:45:00,
2013-02-04 08:00:00,21.7,12.0,29.92,WNW,286,0.0,2.0,66,0.00,,,0.00,weatherlink.com 1.10,2013-02-04 13:00:00,
2013-02-04 08:10:00,22.1,12.1,29.92,NW,313,1.0,2.0,65,0.00,,,0.00,Wunderground v.1.15,2013-02-04 13:10:00,
2013-02-04 08:20:00,22.6,11.9,29.92,NNW,336,2.0,2.0,63,0.00,,,0.00,Wunderground v.1.15,2013-02-04 13:20:00,
2013-02-04 08:30:00,22.9,11.4,29.93,North,360,3.0,4.0,61,0.00,,,0.00,Wunderground v.1.15,2013-02-04 13:30:00,
2013-02-04 08:40:00,23.3,11.8,29.93,West,262,2.0,2.0,61,0.00,,,0.00,Wunderground v.1.15,2013-02-04 13:40:00,
2013-02-04 08:46:00,23.5,11.0,29.93,North,9,3.0,11.0,59,0.00,,,0.00,weatherlink.com 1.10,2013-02-04 13:46:00,
2013-02-04 09:00:00,23.8,11.2,29.93,NW,306,3.0,9.0,58,0.00,,,0.00,Wunderground v.1.15,2013-02-04 14:00:00,
2013-02-04 09:10:00,23.8,11.2,29.93,NW,323,5.0,5.0,58,0.00,,,0.00,Wunderground v.1.15,2013-02-04 14:10:00,
2013-02-04 09:15:00,24.0,11.0,29.93,SW,224,9.0,13.0,58,0.00,,,0.00,weatherlink.com 1.10,2013-02-04 14:15:00,
2013-02-04 09:30:00,24.3,10.8,29.93,North,5,4.0,4.0,56,0.00,,,0.00,Wunderground v.1.15,2013-02-04 14:30:00,
2013-02-04 09:40:00,24.6,11.5,29.93,NNW,336,3.0,3.0,57,0.00,,,0.00,Wunderground v.1.15,2013-02-04 14:40:00,
2013-02-04 09:45:00,24.7,11.0,29.93,NW,318,5.0,8.0,56,0.00,,,0.00,weatherlink.com 1.10,2013-02-04 14:45:00,
2013-02-04 10:00:00,25.4,11.0,29.93,WNW,285,3.0,3.0,54,0.00,,,0.00,Wunderground v.1.15,2013-02-04 15:00:00,
2013-02-04 10:10:00,25.2,10.9,29.93,NW,304,5.0,5.0,54,0.00,,,0.00,Wunderground v.1.15,2013-02-04 15:10:00,
2013-02-04 10:17:00,25.4,10.0,29.93,WNW,290,1.0,15.0,53,0.00,,,0.00,weatherlink.com 1.10,2013-02-04 15:17:00,
2013-02-04 10:30:00,25.9,11.1,29.93,NNW,345,3.0,6.0,53,0.00,,,0.00,Wunderground v.1.15,2013-02-04 15:30:00,
2013-02-04 10:40:00,26.0,10.3,29.93,WSW,250,5.0,5.0,51,0.00,,,0.00,Wunderground v.1.15,2013-02-04 15:40:00,
2013-02-04 10:47:00,26.4,11.0,29.93,WSW,249,10.0,12.0,52,0.00,,,0.00,weatherlink.com 1.10,2013-02-04 15:47:00,
2013-02-04 11:00:00,26.7,10.1,29.92,WNW,298,3.0,3.0,49,0.00,,,0.00,Wunderground v.1.15,2013-02-04 16:00:00,
2013-02-04 11:10:00,26.2,9.6,29.92,NW,311,3.0,3.0,49,0.00,,,0.00,Wunderground v.1.15,2013-02-04 16:10:00,
2013-02-04 11:16:00,26.0,10.0,29.92,SW,228,3.0,11.0,50,0.00,,,0.00,weatherlink.com 1.10,2013-02-04 16:16:00,
2013-02-04 11:30:00,26.2,9.6,29.92,NW,324,3.0,4.0,49,0.00,,,0.00,Wunderground v.1.15,2013-02-04 16:30:00,
2013-02-04 11:40:00,26.9,8.8,29.92,WNW,289,3.0,4.0,46,0.00,,,0.00,Wunderground v.1.15,2013-02-04 16:40:00,
2013-02-04 11:47:00,26.7,9.0,29.91,NW,317,2.0,13.0,47,0.00,,,0.00,weatherlink.com 1.10,2013-02-04 16:47:00,
2013-02-04 12:00:00,27.2,9.1,29.91,NNW,336,4.0,6.0,46,0.00,,,0.00,Wunderground v.1.15,2013-02-04 17:00:00,
2013-02-04 12:10:00,27.6,9.0,29.91,WSW,244,4.0,4.0,45,0.00,,,0.00,Wunderground v.1.15,2013-02-04 17:10:00,
2013-02-04 12:17:00,28.2,10.0,29.91,SW,228,4.0,9.0,47,0.00,,,0.00,weatherlink.com 1.10,2013-02-04 17:17:00,
2013-02-04 12:30:00,28.6,10.4,29.90,West,273,3.0,3.0,46,0.00,,,0.00,Wunderground v.1.15,2013-02-04 17:30:00,
2013-02-04 12:40:00,28.1,9.9,29.90,SW,223,3.0,5.0,46,0.00,,,0.00,Wunderground v.1.15,2013-02-04 17:40:00,
2013-02-04 12:47:00,28.1,10.0,29.90,WSW,254,5.0,14.0,47,0.00,,,0.00,weatherlink.com 1.10,2013-02-04 17:47:00,
2013-02-04 13:00:00,27.7,11.5,29.90,NW,304,5.0,5.0,50,0.00,,,0.00,Wunderground v.1.15,2013-02-04 18:00:00,
2013-02-04 13:10:00,27.9,10.7,29.90,WSW,248,5.0,8.0,48,0.00,,,0.00,Wunderground v.1.15,2013-02-04 18:10:00,
2013-02-04 13:17:00,28.4,11.0,29.90,WSW,237,0.0,10.0,49,0.00,,,0.00,weatherlink.com 1.10,2013-02-04 18:17:00,
2013-02-04 13:30:00,28.4,10.7,29.90,WNW,286,5.0,5.0,47,0.00,,,0.00,Wunderground v.1.15,2013-02-04 18:30:00,
2013-02-04 13:40:00,28.1,11.4,29.90,WNW,289,4.0,5.0,49,0.00,,,0.00,Wunderground v.1.15,2013-02-04 18:40:00,
2013-02-04 13:48:00,28.1,11.0,29.91,WNW,294,7.0,13.0,48,0.00,,,0.00,weatherlink.com 1.10,2013-02-04 18:48:00,
2013-02-04 14:00:00,27.7,10.1,29.91,WNW,295,3.0,3.0,47,0.00,,,0.00,Wunderground v.1.15,2013-02-04 19:00:00,
2013-02-04 14:10:00,27.7,11.0,29.90,SW,232,3.0,4.0,49,0.00,,,0.00,Wunderground v.1.15,2013-02-04 19:10:00,
2013-02-04 14:18:00,28.5,11.0,29.90,West,263,2.0,14.0,49,0.00,,,0.00,weatherlink.com 1.10,2013-02-04 19:18:00,
2013-02-04 14:30:00,28.8,10.6,29.89,WNW,286,5.0,5.0,46,0.00,,,0.00,Wunderground v.1.15,2013-02-04 19:30:00,
2013-02-04 14:40:00,28.5,10.3,29.89,WNW,300,4.0,4.0,46,0.00,,,0.00,Wunderground v.1.15,2013-02-04 19:40:00,
2013-02-04 15:07:00,28.5,10.0,29.89,WNW,294,3.0,15.0,46,0.00,,,0.00,weatherlink.com 1.10,2013-02-04 20:07:00,
2013-02-04 15:18:00,28.2,10.0,29.89,NW,305,0.0,15.0,46,0.00,,,0.00,weatherlink.com 1.10,2013-02-04 20:18:00,
2013-02-04 15:30:00,28.7,10.5,29.89,WNW,289,3.0,5.0,46,0.00,,,0.00,Wunderground v.1.15,2013-02-04 20:30:00,
2013-02-04 15:40:00,28.8,10.6,29.90,NW,313,3.0,3.0,46,0.00,,,0.00,Wunderground v.1.15,2013-02-04 20:40:00,
2013-02-04 15:48:00,29.0,10.0,29.89,NW,319,4.0,8.0,46,0.00,,,0.00,weatherlink.com 1.10,2013-02-04 20:48:00,
2013-02-04 16:00:00,28.9,10.2,29.90,SW,227,2.0,2.0,45,0.00,,,0.00,Wunderground v.1.15,2013-02-04 21:00:00,
2013-02-04 16:10:00,28.7,11.0,29.90,NW,319,2.0,2.0,47,0.00,,,0.00,Wunderground v.1.15,2013-02-04 21:10:00,
2013-02-04 16:18:00,28.3,10.0,29.90,West,265,5.0,12.0,46,0.00,,,0.00,weatherlink.com 1.10,2013-02-04 21:18:00,
2013-02-04 16:30:00,28.3,10.1,29.90,NW,304,2.0,2.0,46,0.00,,,0.00,Wunderground v.1.15,2013-02-04 21:30:00,
2013-02-04 16:40:00,28.1,9.9,29.90,WNW,294,2.0,2.0,46,0.00,,,0.00,Wunderground v.1.15,2013-02-04 21:40:00,
2013-02-04 16:48:00,28.0,10.0,29.91,NW,316,1.0,5.0,47,0.00,,,0.00,weatherlink.com 1.10,2013-02-04 21:48:00,
2013-02-04 17:00:00,27.9,10.7,29.91,WSW,238,1.0,3.0,48,0.00,,,0.00,Wunderground v.1.15,2013-02-04 22:00:00,
2013-02-04 17:10:00,27.8,11.1,29.91,WSW,242,1.0,4.0,49,0.00,,,0.00,Wunderground v.1.15,2013-02-04 22:10:00,
2013-02-04 17:20:00,27.6,10.0,29.91,SW,225,6.0,15.0,48,0.00,,,0.00,weatherlink.com 1.10,2013-02-04 22:20:00,
2013-02-04 17:30:00,27.4,10.7,29.92,SW,229,2.0,4.0,49,0.00,,,0.00,Wunderground v.1.15,2013-02-04 22:30:00,
2013-02-04 17:40:00,27.1,11.3,29.92,WNW,290,1.0,1.0,51,0.00,,,0.00,Wunderground v.1.15,2013-02-04 22:40:00,
2013-02-04 17:50:00,26.9,10.0,29.92,WNW,284,0.0,5.0,50,0.00,,,0.00,weatherlink.com 1.10,2013-02-04 22:50:00,
2013-02-04 18:00:00,26.7,11.0,29.92,WSW,255,1.0,1.0,51,0.00,,,0.00,Wunderground v.1.15,2013-02-04 23:00:00,
2013-02-04 18:10:00,26.6,10.9,29.93,WNW,290,1.0,2.0,51,0.00,,,0.00,Wunderground v.1.15,2013-02-04 23:10:00,
2013-02-04 18:19:00,26.6,11.0,29.93,NW,323,0.0,6.0,51,0.00,,,0.00,weatherlink.com 1.10,2013-02-04 23:19:00,
2013-02-04 18:30:00,26.6,10.9,29.93,West,267,1.0,1.0,51,0.00,,,0.00,Wunderground v.1.15,2013-02-04 23:30:00,
2013-02-04 18:35:00,26.5,11.0,29.93,SW,223,4.0,6.0,52,0.00,,,0.00,weatherlink.com 1.10,2013-02-04 23:35:00,
2013-02-04 18:50:00,26.6,11.0,29.94,WNW,298,2.0,3.0,52,0.00,,,0.00,weatherlink.com 1.10,2013-02-04 23:50:00,
2013-02-04 19:00:00,26.5,12.1,29.94,WSW,249,0.0,1.0,54,0.00,,,0.00,Wunderground v.1.15,2013-02-05 00:00:00,
2013-02-04 19:10:00,26.3,11.9,29.94,WNW,284,0.0,0.0,54,0.00,,,0.00,Wunderground v.1.15,2013-02-05 00:10:00,
2013-02-04 19:20:00,26.2,11.0,29.94,West,262,0.0,4.0,53,0.00,,,0.00,weatherlink.com 1.10,2013-02-05 00:20:00,
2013-02-04 19:30:00,26.2,11.8,29.95,WNW,299,0.0,0.0,54,0.00,,,0.00,Wunderground v.1.15,2013-02-05 00:30:00,
2013-02-04 19:40:00,26.2,12.2,29.95,West,266,0.0,0.0,55,0.00,,,0.00,Wunderground v.1.15,2013-02-05 00:40:00,
2013-02-04 19:49:00,26.2,12.0,29.95,West,279,0.0,4.0,55,0.00,,,0.00,weatherlink.com 1.10,2013-02-05 00:49:00,
2013-02-04 20:00:00,26.1,12.1,29.95,WNW,294,0.0,0.0,55,0.00,,,0.00,Wunderground v.1.15,2013-02-05 01:00:00,
2013-02-04 20:10:00,26.1,12.1,29.95,SW,236,0.0,0.0,55,0.00,,,0.00,Wunderground v.1.15,2013-02-05 01:10:00,
2013-02-04 20:20:00,26.0,12.0,29.95,WNW,283,0.0,3.0,56,0.00,,,0.00,weatherlink.com 1.10,2013-02-05 01:20:00,
2013-02-04 20:35:00,26.0,12.0,29.95,NW,305,0.0,3.0,56,0.00,,,0.00,weatherlink.com 1.10,2013-02-05 01:35:00,
2013-02-04 20:50:00,25.9,12.0,29.95,West,281,0.0,1.0,57,0.00,,,0.00,weatherlink.com 1.10,2013-02-05 01:50:00,
2013-02-04 21:05:00,25.6,12.0,29.94,West,281,0.0,1.0,57,0.00,,,0.00,weatherlink.com 1.10,2013-02-05 02:05:00,
2013-02-04 21:20:00,25.4,13.0,29.95,West,281,0.0,2.0,59,0.00,,,0.00,weatherlink.com 1.10,2013-02-05 02:20:00,
2013-02-04 21:35:00,25.4,13.0,29.95,West,281,0.0,2.0,59,0.00,,,0.00,weatherlink.com 1.10,2013-02-05 02:35:00,
2013-02-04 21:50:00,25.4,13.0,29.95,West,281,0.0,1.0,59,0.00,,,0.00,weatherlink.com 1.10,2013-02-05 02:50:00,
2013-02-04 22:05:00,25.3,13.0,29.95,West,281,0.0,1.0,60,0.00,,,0.00,weatherlink.com 1.10,2013-02-05 03:05:00,
2013-02-04 22:20:00,25.0,14.0,29.95,West,281,0.0,1.0,62,0.00,,,0.00,weatherlink.com 1.10,2013-02-05 03:20:00,
2013-02-04 22:35:00,24.6,14.0,29.95,West,281,0.0,2.0,63,0.00,,,0.00,weatherlink.com 1.10,2013-02-05 03:35:00,
2013-02-04 22:50:00,24.5,13.0,29.95,West,281,0.0,0.0,63,0.00,,,0.00,weatherlink.com 1.10,2013-02-05 03:50:00,
2013-02-04 23:05:00,24.7,15.0,29.95,West,281,0.0,0.0,68,0.00,,,0.00,weatherlink.com 1.10,2013-02-05 04:05:00,
2013-02-04 23:20:00,24.8,14.0,29.95,West,281,0.0,0.0,63,0.00,,,0.00,weatherlink.com 1.10,2013-02-05 04:20:00,
2013-02-04 23:35:00,24.9,15.0,29.95,West,281,0.0,0.0,66,0.00,,,0.00,weatherlink.com 1.10,2013-02-05 04:35:00,
2013-02-04 23:50:00,25.1,15.0,29.95,West,281,0.0,0.0,65,0.00,,,0.00,weatherlink.com 1.10,2013-02-05 04:50:00,